Time;durP1;ratioP1;P1;durP2;ratioP2;P2;SDS_P1;SDS_P2;PMS_P1;PMS_P2;Temp;Humidity;BMP_temperature;BMP_pressure;BME280_temperature;BME280_humidity;BME280_pressure;Samples;Min_cycle;Max_cycle;Signal;HPM_P1;HPM_P2
2023/08/26 00:00:38;;;;;;;14.98;13.20;;;17.00;99.90;;;;;;5069705;28;20166;-83
2023/08/26 00:03:04;;;;;;;16.15;12.75;;;16.90;99.90;;;;;;5083291;28;20139;-82
2023/08/26 00:05:30;;;;;;;22.25;14.07;;;16.90;99.90;;;;;;5068930;28;20079;-82
2023/08/26 00:07:56;;;;;;;20.35;14.88;;;16.90;99.90;;;;;;5071424;28;20068;-83
2023/08/26 00:10:21;;;;;;;17.10;14.35;;;16.80;99.90;;;;;;5054728;28;20081;-82
2023/08/26 00:12:47;;;;;;;17.55;14.23;;;16.70;99.90;;;;;;5081484;28;20035;-82
2023/08/26 00:15:12;;;;;;;18.25;14.57;;;16.80;99.90;;;;;;5082620;28;20188;-82
2023/08/26 00:17:38;;;;;;;19.05;13.77;;;16.70;99.90;;;;;;5083060;28;20608;-83
2023/08/26 00:20:05;;;;;;;15.95;12.68;;;16.60;99.90;;;;;;5067451;28;20501;-82
2023/08/26 00:22:31;;;;;;;16.23;13.48;;;16.60;99.90;;;;;;5067828;28;20121;-83
2023/08/26 00:24:57;;;;;;;16.77;12.48;;;16.60;99.90;;;;;;5074889;28;20086;-82
2023/08/26 00:27:22;;;;;;;14.02;11.60;;;16.60;99.90;;;;;;5076744;28;20044;-82
2023/08/26 00:29:48;;;;;;;17.13;13.00;;;16.60;99.90;;;;;;5083800;28;20406;-82
2023/08/26 00:32:13;;;;;;;16.60;13.57;;;16.50;99.90;;;;;;5075169;28;20048;-83
2023/08/26 00:34:39;;;;;;;14.95;12.30;;;16.50;99.90;;;;;;5068381;28;20072;-82
2023/08/26 00:37:04;;;;;;;14.85;12.98;;;16.50;99.90;;;;;;5067465;28;20090;-82
2023/08/26 00:39:31;;;;;;;18.75;12.80;;;16.40;99.90;;;;;;5080822;28;20119;-82
2023/08/26 00:41:56;;;;;;;17.73;12.75;;;16.40;99.90;;;;;;5076016;28;20060;-82
2023/08/26 00:44:23;;;;;;;14.35;11.38;;;16.60;99.90;;;;;;5072604;28;20149;-82
2023/08/26 00:46:48;;;;;;;15.18;12.13;;;16.40;99.90;;;;;;5074062;28;20121;-82
2023/08/26 00:49:17;;;;;;;14.50;11.15;;;16.40;99.90;;;;;;5085151;28;20510;-82
2023/08/26 00:51:42;;;;;;;14.98;11.23;;;16.40;99.90;;;;;;5080444;28;20059;-82
2023/08/26 00:54:09;;;;;;;14.15;11.32;;;16.40;99.90;;;;;;5073289;28;20040;-82
2023/08/26 00:56:35;;;;;;;18.92;11.35;;;16.40;99.90;;;;;;5073486;28;20157;-82
2023/08/26 00:59:01;;;;;;;16.42;11.88;;;16.40;99.90;;;;;;5073942;28;20093;-82
2023/08/26 01:01:29;;;;;;;15.98;11.27;;;16.40;99.90;;;;;;5072867;28;20033;-82
2023/08/26 01:03:55;;;;;;;12.75;10.63;;;16.30;99.90;;;;;;5079071;28;20044;-82
2023/08/26 01:06:21;;;;;;;11.85;10.52;;;16.40;99.90;;;;;;5090392;28;20104;-83
2023/08/26 01:08:47;;;;;;;12.30;10.50;;;16.30;99.90;;;;;;5079139;28;20482;-82
2023/08/26 01:11:18;;;;;;;12.05;10.07;;;16.30;99.90;;;;;;5080703;28;20067;-83
2023/08/26 01:13:50;;;;;;;19.27;10.88;;;16.30;99.90;;;;;;5081044;28;20044;-82
2023/08/26 01:16:17;;;;;;;11.60;9.50;;;16.30;99.90;;;;;;5093753;28;20055;-82
2023/08/26 01:18:44;;;;;;;10.98;9.38;;;16.30;99.90;;;;;;5074276;28;20515;-83
2023/08/26 01:21:12;;;;;;;14.93;9.68;;;16.30;99.90;;;;;;5074166;28;20127;-82
2023/08/26 01:23:41;;;;;;;10.93;9.13;;;16.30;99.90;;;;;;5071645;28;20095;-82
2023/08/26 01:26:07;;;;;;;12.68;9.68;;;16.30;99.90;;;;;;5073124;28;20055;-82
2023/08/26 01:28:33;;;;;;;12.35;9.70;;;16.20;99.90;;;;;;5073884;28;20047;-82
2023/08/26 01:31:10;;;;;;;11.32;9.10;;;16.20;99.90;;;;;;5071859;28;20257;-82
2023/08/26 01:33:44;;;;;;;11.45;9.65;;;16.30;99.90;;;;;;5073006;28;20054;-82
2023/08/26 01:36:15;;;;;;;11.80;9.63;;;16.50;99.90;;;;;;5073936;28;20131;-82
2023/08/26 01:38:42;;;;;;;10.85;9.20;;;16.20;99.90;;;;;;5087927;28;20409;-82
2023/08/26 01:41:10;;;;;;;11.75;8.55;;;16.20;99.90;;;;;;5094220;28;20881;-82
2023/08/26 01:43:36;;;;;;;9.45;8.50;;;16.10;99.90;;;;;;5074676;28;20056;-81
2023/08/26 01:46:02;;;;;;;9.80;8.80;;;16.10;99.90;;;;;;5074373;28;20056;-82
2023/08/26 01:48:27;;;;;;;11.98;8.88;;;16.10;99.90;;;;;;5087658;28;20055;-83
2023/08/26 01:50:53;;;;;;;11.23;8.18;;;16.10;99.90;;;;;;5071299;28;20036;-82
2023/08/26 01:53:18;;;;;;;11.77;8.32;;;16.00;99.90;;;;;;5068514;28;20076;-82
2023/08/26 01:55:44;;;;;;;12.40;8.55;;;16.00;99.90;;;;;;5071095;28;20048;-82
2023/08/26 01:58:09;;;;;;;10.57;8.02;;;16.00;99.90;;;;;;5070224;28;20048;-82
2023/08/26 02:00:35;;;;;;;10.07;7.60;;;15.90;99.90;;;;;;5071559;28;20413;-82
2023/08/26 02:03:01;;;;;;;9.10;7.60;;;15.90;99.90;;;;;;5079494;28;20036;-82
2023/08/26 02:05:27;;;;;;;9.25;7.53;;;15.90;99.90;;;;;;5087167;28;20048;-81
2023/08/26 02:07:52;;;;;;;8.27;7.47;;;15.90;99.90;;;;;;5086111;28;20060;-82
2023/08/26 02:10:18;;;;;;;9.98;7.93;;;15.80;99.90;;;;;;5088741;28;20054;-82
2023/08/26 02:12:43;;;;;;;8.52;7.10;;;15.90;99.90;;;;;;5070082;28;20040;-82
2023/08/26 02:15:09;;;;;;;8.13;6.63;;;15.80;99.90;;;;;;5069537;28;20040;-82
2023/08/26 02:17:35;;;;;;;10.45;7.07;;;15.80;99.90;;;;;;5073989;28;20036;-83
2023/08/26 02:20:00;;;;;;;10.85;6.97;;;15.80;99.90;;;;;;5079983;28;20040;-82
2023/08/26 02:22:26;;;;;;;8.98;7.47;;;15.80;99.90;;;;;;5069729;28;20036;-82
2023/08/26 02:24:51;;;;;;;10.02;7.30;;;15.80;99.90;;;;;;5085267;28;20040;-83
2023/08/26 02:27:17;;;;;;;8.95;7.82;;;15.80;99.90;;;;;;5077017;28;20417;-82
2023/08/26 02:29:42;;;;;;;10.13;6.97;;;15.80;99.90;;;;;;5081156;28;20241;-83
2023/08/26 02:32:08;;;;;;;10.98;7.13;;;15.80;99.90;;;;;;5071418;28;20047;-82
2023/08/26 02:34:34;;;;;;;9.77;7.40;;;15.80;99.90;;;;;;5080896;28;20429;-83
2023/08/26 02:36:59;;;;;;;8.65;7.07;;;15.70;99.90;;;;;;5069201;28;23760;-82
2023/08/26 02:39:25;;;;;;;9.48;7.32;;;15.70;99.90;;;;;;5070343;28;20037;-82
2023/08/26 02:41:50;;;;;;;10.80;6.90;;;15.70;99.90;;;;;;5068845;28;20056;-82
2023/08/26 02:44:16;;;;;;;9.18;6.97;;;15.60;99.90;;;;;;5070835;28;20044;-83
2023/08/26 02:46:41;;;;;;;12.30;6.78;;;15.50;99.90;;;;;;5070400;28;20051;-82
2023/08/26 02:49:07;;;;;;;7.78;6.88;;;15.50;99.90;;;;;;5076382;28;20123;-83
2023/08/26 02:51:33;;;;;;;7.20;6.50;;;15.50;99.90;;;;;;5090031;28;20046;-82
2023/08/26 02:53:58;;;;;;;8.25;7.05;;;15.50;99.90;;;;;;5076975;28;20055;-82
2023/08/26 02:56:24;;;;;;;7.22;6.47;;;15.50;99.90;;;;;;5070188;28;20060;-82
2023/08/26 02:58:49;;;;;;;13.02;6.95;;;15.40;99.90;;;;;;5068672;28;20091;-82
2023/08/26 03:01:18;;;;;;;9.15;7.15;;;15.40;99.90;;;;;;5069948;28;20040;-82
2023/08/26 03:03:43;;;;;;;8.85;6.97;;;15.30;99.90;;;;;;5073151;28;20608;-82
2023/08/26 03:06:09;;;;;;;10.45;7.75;;;15.30;99.90;;;;;;5076409;28;20080;-82
2023/08/26 03:08:34;;;;;;;8.00;6.60;;;15.30;99.90;;;;;;5081949;28;20105;-81
2023/08/26 03:11:03;;;;;;;7.50;6.63;;;15.20;99.90;;;;;;5051155;28;20567;-82
2023/08/26 03:13:28;;;;;;;8.82;7.03;;;15.10;99.90;;;;;;5082794;28;20109;-82
2023/08/26 03:15:54;;;;;;;8.48;6.75;;;15.10;99.90;;;;;;5068422;28;20799;-82
2023/08/26 03:18:20;;;;;;;7.75;6.95;;;15.00;99.90;;;;;;5069289;28;20049;-82
2023/08/26 03:20:46;;;;;;;8.27;6.82;;;15.00;99.90;;;;;;5075749;28;20040;-82
2023/08/26 03:23:11;;;;;;;8.20;6.80;;;15.00;99.90;;;;;;5077637;28;20130;-82
2023/08/26 03:25:38;;;;;;;11.70;6.50;;;14.90;99.90;;;;;;5082189;28;20080;-82
2023/08/26 03:28:04;;;;;;;9.98;6.70;;;14.90;99.90;;;;;;5082959;28;20091;-82
2023/08/26 03:30:29;;;;;;;10.07;6.70;;;14.90;99.90;;;;;;5078877;28;20487;-82
2023/08/26 03:32:55;;;;;;;9.50;6.63;;;14.90;99.90;;;;;;5057121;28;20055;-82
2023/08/26 03:35:20;;;;;;;10.38;6.97;;;14.80;99.90;;;;;;5067916;28;20043;-82
2023/08/26 03:37:46;;;;;;;9.27;6.60;;;14.70;99.90;;;;;;5068235;28;20233;-82
2023/08/26 03:40:12;;;;;;;9.20;6.43;;;14.70;99.90;;;;;;5067850;28;20139;-82
2023/08/26 03:42:38;;;;;;;8.77;7.40;;;14.70;99.90;;;;;;5071327;28;20134;-82
2023/08/26 03:45:04;;;;;;;8.95;7.15;;;14.60;99.90;;;;;;5071195;28;20055;-82
2023/08/26 03:47:31;;;;;;;9.07;7.05;;;14.70;99.90;;;;;;5078546;28;20105;-82
2023/08/26 03:49:57;;;;;;;7.40;6.60;;;14.60;99.90;;;;;;5072230;28;20048;-82
2023/08/26 03:52:22;;;;;;;10.00;7.40;;;14.50;99.90;;;;;;5077477;28;20047;-82
2023/08/26 03:54:48;;;;;;;8.85;6.40;;;14.40;99.90;;;;;;5088225;28;20130;-82
2023/08/26 03:57:13;;;;;;;8.85;6.57;;;14.40;99.90;;;;;;5082798;28;20036;-82
2023/08/26 03:59:39;;;;;;;8.00;6.35;;;14.40;99.90;;;;;;5065661;28;20048;-81
2023/08/26 04:02:05;;;;;;;10.05;6.60;;;14.40;99.90;;;;;;5068531;28;20040;-82
2023/08/26 04:04:31;;;;;;;11.25;7.35;;;14.40;99.90;;;;;;5079445;28;20417;-82
2023/08/26 04:06:57;;;;;;;8.77;6.90;;;14.40;99.90;;;;;;5067985;28;20044;-82
2023/08/26 04:09:23;;;;;;;7.90;7.10;;;14.40;99.90;;;;;;5068161;28;20131;-82
2023/08/26 04:11:49;;;;;;;10.25;7.20;;;14.40;99.90;;;;;;5078718;28;20482;-82
2023/08/26 04:14:15;;;;;;;8.30;7.38;;;14.40;99.90;;;;;;5086087;28;20044;-82
2023/08/26 04:16:41;;;;;;;9.65;7.70;;;14.40;99.90;;;;;;5080186;28;20051;-82
2023/08/26 04:19:07;;;;;;;8.25;6.80;;;14.40;99.90;;;;;;5067528;28;20052;-82
2023/08/26 04:21:33;;;;;;;9.30;7.25;;;14.40;99.90;;;;;;5068279;28;20044;-82
2023/08/26 04:23:58;;;;;;;9.73;7.40;;;14.40;99.90;;;;;;5066482;28;20044;-82
2023/08/26 04:26:24;;;;;;;8.75;6.90;;;14.40;99.90;;;;;;5067525;28;20059;-82
2023/08/26 04:28:49;;;;;;;8.82;7.07;;;14.40;99.90;;;;;;5080203;28;20494;-81
2023/08/26 04:31:15;;;;;;;9.15;7.03;;;14.40;99.90;;;;;;5087682;28;20035;-81
2023/08/26 04:33:41;;;;;;;8.75;7.00;;;14.30;99.90;;;;;;5083195;28;20051;-81
2023/08/26 04:36:07;;;;;;;10.95;6.93;;;14.30;99.90;;;;;;5069156;28;20075;-82
2023/08/26 04:38:33;;;;;;;9.38;6.75;;;14.30;99.90;;;;;;5066878;28;20425;-82
2023/08/26 04:40:59;;;;;;;9.43;6.68;;;14.20;99.90;;;;;;5066036;28;20053;-82
2023/08/26 04:43:25;;;;;;;11.75;7.85;;;14.30;99.90;;;;;;5077141;28;20040;-82
2023/08/26 04:45:52;;;;;;;9.48;7.43;;;14.30;99.90;;;;;;5073465;28;20102;-81
2023/08/26 04:48:18;;;;;;;9.90;7.13;;;14.30;99.90;;;;;;5066851;28;20056;-82
2023/08/26 04:50:44;;;;;;;10.45;7.65;;;14.30;99.90;;;;;;5086593;28;20105;-81
2023/08/26 04:53:09;;;;;;;13.52;8.50;;;14.40;99.90;;;;;;5079281;28;20127;-82
2023/08/26 04:55:36;;;;;;;8.68;7.70;;;14.40;99.90;;;;;;5066591;28;20415;-82
2023/08/26 04:58:02;;;;;;;11.23;7.65;;;14.50;99.90;;;;;;5067067;28;20110;-82
2023/08/26 05:00:28;;;;;;;10.27;7.63;;;14.50;99.90;;;;;;5067324;28;20059;-82
2023/08/26 05:02:54;;;;;;;9.75;8.68;;;14.60;99.90;;;;;;5067850;28;20040;-84
2023/08/26 05:05:19;;;;;;;11.07;7.57;;;14.60;99.90;;;;;;5081872;28;20078;-83
2023/08/26 05:07:45;;;;;;;11.27;7.97;;;14.60;99.90;;;;;;5074709;28;20090;-83
2023/08/26 05:10:12;;;;;;;10.93;7.78;;;14.60;99.90;;;;;;5074460;28;20040;-84
2023/08/26 05:12:38;;;;;;;10.15;8.55;;;14.70;99.90;;;;;;5070882;28;20811;-81
2023/08/26 05:15:04;;;;;;;10.65;8.18;;;14.70;99.90;;;;;;5067015;28;20052;-81
2023/08/26 05:17:30;;;;;;;9.15;7.97;;;14.70;99.90;;;;;;5081892;28;20040;-81
2023/08/26 05:19:55;;;;;;;11.88;8.48;;;14.80;99.90;;;;;;5065624;28;20106;-81
2023/08/26 05:22:21;;;;;;;13.07;8.50;;;14.80;99.90;;;;;;5082838;28;20513;-81
2023/08/26 05:24:47;;;;;;;13.52;9.95;;;14.80;99.90;;;;;;5065959;28;20087;-81
2023/08/26 05:27:14;;;;;;;10.27;9.05;;;14.80;99.90;;;;;;5071641;28;20048;-80
2023/08/26 05:29:40;;;;;;;13.60;9.18;;;14.90;99.90;;;;;;5071279;28;20045;-81
2023/08/26 05:32:05;;;;;;;11.98;9.15;;;14.90;99.90;;;;;;5070002;28;20418;-80
2023/08/26 05:34:31;;;;;;;11.20;8.85;;;15.00;99.90;;;;;;5085291;28;20040;-81
2023/08/26 05:36:57;;;;;;;10.23;9.10;;;15.00;99.90;;;;;;5070496;28;20136;-82
2023/08/26 05:39:23;;;;;;;13.30;8.65;;;15.00;99.90;;;;;;5076337;28;20036;-82
2023/08/26 05:41:48;;;;;;;13.38;9.50;;;15.10;99.90;;;;;;5081231;28;20060;-82
2023/08/26 05:44:14;;;;;;;12.05;9.77;;;15.10;99.90;;;;;;5083555;28;20055;-82
2023/08/26 05:46:40;;;;;;;11.68;9.73;;;15.20;99.90;;;;;;5078733;28;20398;-82
2023/08/26 05:49:05;;;;;;;14.05;10.20;;;15.20;99.90;;;;;;5074028;28;20135;-82
2023/08/26 05:51:31;;;;;;;12.10;9.82;;;15.20;99.90;;;;;;5085049;28;20071;-82
2023/08/26 05:53:56;;;;;;;14.00;10.07;;;15.30;99.90;;;;;;5089206;28;20066;-81
2023/08/26 05:56:22;;;;;;;13.88;10.10;;;15.30;99.90;;;;;;5074269;28;20083;-82
2023/08/26 05:58:48;;;;;;;11.13;9.15;;;15.40;99.90;;;;;;5075031;28;20047;-81
2023/08/26 06:01:13;;;;;;;14.00;9.95;;;15.40;99.90;;;;;;5070589;28;20040;-81
2023/08/26 06:03:39;;;;;;;11.68;9.93;;;15.40;99.90;;;;;;5070566;28;20060;-82
2023/08/26 06:06:05;;;;;;;11.45;8.93;;;15.50;99.90;;;;;;5068959;28;20505;-81
2023/08/26 06:08:31;;;;;;;14.32;9.73;;;15.50;99.90;;;;;;5080690;28;20690;-82
2023/08/26 06:10:58;;;;;;;10.80;9.27;;;15.50;99.90;;;;;;5073762;28;20106;-82
2023/08/26 06:13:23;;;;;;;11.35;9.32;;;15.50;99.90;;;;;;5070809;28;20070;-82
2023/08/26 06:15:55;;;;;;;13.05;9.25;;;15.60;99.90;;;;;;5069937;28;20044;-82
2023/08/26 06:18:22;;;;;;;11.82;9.43;;;15.60;99.90;;;;;;5071729;28;20036;-82
2023/08/26 06:20:50;;;;;;;17.05;10.00;;;15.60;99.90;;;;;;5079553;28;20123;-82
2023/08/26 06:23:15;;;;;;;14.02;9.70;;;15.60;99.90;;;;;;5075562;28;20344;-81
2023/08/26 06:25:55;;;;;;;13.40;9.88;;;15.70;99.90;;;;;;5080933;28;20044;-83
2023/08/26 06:28:21;;;;;;;15.80;10.25;;;15.70;99.90;;;;;;5082462;28;20044;-83
2023/08/26 06:30:46;;;;;;;13.98;10.38;;;15.80;99.90;;;;;;5071001;28;20044;-82
2023/08/26 06:33:12;;;;;;;12.48;10.20;;;15.80;99.90;;;;;;5069339;28;20037;-82
2023/08/26 06:35:38;;;;;;;12.48;10.18;;;15.80;99.90;;;;;;5085994;28;20402;-83
2023/08/26 06:38:04;;;;;;;15.65;9.90;;;16.00;99.90;;;;;;5069538;28;20052;-81
2023/08/26 06:40:33;;;;;;;15.13;11.13;;;15.90;99.90;;;;;;5069613;28;20593;-82
2023/08/26 06:42:59;;;;;;;14.27;11.75;;;16.00;99.90;;;;;;5069372;28;20055;-82
2023/08/26 06:45:24;;;;;;;16.35;12.52;;;16.00;99.90;;;;;;5069227;28;20052;-82
2023/08/26 06:47:50;;;;;;;16.63;12.63;;;16.10;99.90;;;;;;5077336;28;20080;-82
2023/08/26 06:50:16;;;;;;;16.17;13.07;;;16.10;99.90;;;;;;5082168;28;20059;-82
2023/08/26 06:52:41;;;;;;;19.35;14.35;;;16.10;99.90;;;;;;5070558;28;20056;-83
2023/08/26 06:55:09;;;;;;;19.85;13.52;;;16.10;99.90;;;;;;5069146;28;20064;-82
2023/08/26 06:57:35;;;;;;;16.73;13.65;;;16.20;99.90;;;;;;5067854;28;20502;-81
2023/08/26 07:00:05;;;;;;;16.35;13.60;;;16.20;99.90;;;;;;5069076;28;20066;-81
2023/08/26 07:02:31;;;;;;;20.98;13.98;;;16.30;99.90;;;;;;5074753;28;20361;-82
2023/08/26 07:04:56;;;;;;;18.77;13.30;;;16.30;99.90;;;;;;5085500;28;20052;-81
2023/08/26 07:07:22;;;;;;;15.93;12.98;;;16.30;99.90;;;;;;5075156;28;20046;-82
2023/08/26 07:09:48;;;;;;;18.38;13.18;;;16.30;99.90;;;;;;5087298;28;20048;-82
2023/08/26 07:12:14;;;;;;;16.08;12.88;;;16.20;99.90;;;;;;5088818;28;20127;-83
2023/08/26 07:14:40;;;;;;;16.63;12.95;;;16.20;99.90;;;;;;5088554;28;20052;-83
2023/08/26 07:17:07;;;;;;;17.10;14.75;;;16.10;99.90;;;;;;5084473;28;20465;-83
2023/08/26 07:19:32;;;;;;;17.77;15.75;;;16.10;99.90;;;;;;5050918;28;20040;-83
2023/08/26 07:21:58;;;;;;;17.50;15.50;;;16.10;99.90;;;;;;5067525;28;20131;-83
2023/08/26 07:24:23;;;;;;;17.42;15.10;;;16.30;99.90;;;;;;5068989;28;20071;-83
2023/08/26 07:26:49;;;;;;;18.90;14.52;;;16.20;99.90;;;;;;5069262;28;20107;-83
2023/08/26 07:29:15;;;;;;;15.95;13.80;;;16.20;99.90;;;;;;5075273;28;20062;-83
2023/08/26 07:31:42;;;;;;;18.75;14.27;;;16.30;99.90;;;;;;5087187;28;20059;-83
2023/08/26 07:34:08;;;;;;;15.82;14.07;;;16.40;99.90;;;;;;5083120;28;20044;-82
2023/08/26 07:36:33;;;;;;;18.50;14.27;;;16.40;99.90;;;;;;5078154;28;20554;-83
2023/08/26 07:38:59;;;;;;;16.42;14.23;;;16.40;99.90;;;;;;5086887;28;20060;-83
2023/08/26 07:41:25;;;;;;;16.00;13.63;;;16.50;99.90;;;;;;5088869;28;20059;-83
2023/08/26 07:43:50;;;;;;;16.05;14.23;;;16.60;99.90;;;;;;5088874;28;20076;-83
2023/08/26 07:46:18;;;;;;;18.27;14.32;;;16.60;99.90;;;;;;5088943;28;20052;-83
2023/08/26 07:48:44;;;;;;;16.30;14.77;;;16.60;99.90;;;;;;5086461;28;20048;-83
2023/08/26 07:51:10;;;;;;;19.40;15.38;;;16.50;99.90;;;;;;5081020;28;20036;-84
2023/08/26 07:53:35;;;;;;;17.48;14.52;;;16.50;99.90;;;;;;5067349;28;20125;-84
2023/08/26 07:56:01;;;;;;;16.65;14.80;;;16.50;99.90;;;;;;5068025;28;20659;-85
2023/08/26 07:58:27;;;;;;;19.50;14.10;;;16.50;99.90;;;;;;5050166;28;20152;-84
2023/08/26 08:00:52;;;;;;;16.85;14.95;;;16.60;99.90;;;;;;5068253;28;20056;-84
2023/08/26 08:03:18;;;;;;;15.85;14.18;;;16.80;99.90;;;;;;5068056;28;20083;-85
2023/08/26 08:05:44;;;;;;;15.57;13.30;;;16.90;99.90;;;;;;5067979;28;20095;-86
2023/08/26 08:08:09;;;;;;;18.70;13.95;;;17.10;99.90;;;;;;5068029;28;20414;-85
2023/08/26 08:10:35;;;;;;;15.93;13.98;;;17.30;99.90;;;;;;5068147;28;20113;-84
2023/08/26 08:13:01;;;;;;;17.45;13.73;;;17.50;99.90;;;;;;5066819;28;20045;-84
2023/08/26 08:15:27;;;;;;;14.27;12.75;;;17.50;99.90;;;;;;5050094;28;20084;-85
2023/08/26 08:17:52;;;;;;;15.30;12.18;;;17.60;99.90;;;;;;5068180;28;20091;-84
2023/08/26 08:20:19;;;;;;;15.93;12.25;;;17.70;99.90;;;;;;5067945;28;20048;-84
2023/08/26 08:22:45;;;;;;;13.82;12.30;;;17.80;99.90;;;;;;5067767;28;20052;-84
2023/08/26 08:25:11;;;;;;;16.23;12.32;;;17.80;99.90;;;;;;5066867;28;20460;-85
2023/08/26 08:27:37;;;;;;;14.27;12.38;;;17.80;99.90;;;;;;5076586;28;20044;-83
2023/08/26 08:30:04;;;;;;;13.65;11.68;;;17.80;99.90;;;;;;5089065;28;20048;-83
2023/08/26 08:32:30;;;;;;;14.68;12.18;;;17.90;99.90;;;;;;5085515;28;20048;-83
2023/08/26 08:34:55;;;;;;;14.35;11.70;;;18.10;99.90;;;;;;5073248;28;20051;-83
2023/08/26 08:37:21;;;;;;;12.10;10.73;;;18.20;99.90;;;;;;5077657;28;20112;-83
2023/08/26 08:39:47;;;;;;;12.77;10.90;;;18.30;99.90;;;;;;5067827;28;20050;-83
2023/08/26 08:42:17;;;;;;;14.90;10.48;;;18.40;99.90;;;;;;5081606;28;20134;-84
2023/08/26 08:44:44;;;;;;;13.18;11.15;;;18.50;99.90;;;;;;5079788;28;20360;-84
2023/08/26 08:47:10;;;;;;;14.95;11.07;;;18.50;99.90;;;;;;5082829;28;20044;-80
2023/08/26 08:49:37;;;;;;;12.50;10.20;;;18.40;99.90;;;;;;5078932;28;20094;-80
2023/08/26 08:52:03;;;;;;;13.60;10.27;;;18.30;99.90;;;;;;5068055;28;20059;-80
2023/08/26 08:54:30;;;;;;;12.20;10.90;;;18.30;99.90;;;;;;5066493;28;20181;-81
2023/08/26 08:56:56;;;;;;;11.35;10.25;;;18.30;99.90;;;;;;5082237;28;20124;-81
2023/08/26 08:59:22;;;;;;;11.00;9.90;;;18.30;99.90;;;;;;5065640;28;20120;-81
2023/08/26 09:01:48;;;;;;;12.05;10.02;;;18.40;99.90;;;;;;5068942;28;20526;-81
2023/08/26 09:04:14;;;;;;;11.65;9.55;;;18.70;99.90;;;;;;5070700;28;20048;-81
2023/08/26 09:06:40;;;;;;;11.70;9.30;;;18.90;99.90;;;;;;5068357;28;20090;-81
2023/08/26 09:09:10;;;;;;;10.90;9.02;;;19.00;99.90;;;;;;5085835;28;20040;-81
2023/08/26 09:11:37;;;;;;;10.65;9.35;;;19.10;99.90;;;;;;5089100;28;20083;-81
2023/08/26 09:14:03;;;;;;;11.32;9.05;;;19.10;99.90;;;;;;5091718;28;20066;-81
2023/08/26 09:16:37;;;;;;;11.13;8.85;;;19.20;99.90;;;;;;5092396;28;20042;-81
2023/08/26 09:19:13;;;;;;;15.00;9.13;;;19.30;99.90;;;;;;5091533;28;20390;-80
2023/08/26 09:21:46;;;;;;;10.70;8.38;;;19.40;99.90;;;;;;5091213;28;20094;-81
2023/08/26 09:24:16;;;;;;;9.32;7.78;;;19.40;99.90;;;;;;5076730;28;20444;-81
2023/08/26 09:26:43;;;;;;;10.43;7.68;;;19.50;99.90;;;;;;5070046;28;20044;-81
2023/08/26 09:29:20;;;;;;;9.70;7.20;;;19.60;99.90;;;;;;5071455;28;20052;-81
2023/08/26 09:31:49;;;;;;;9.77;6.70;;;19.80;99.90;;;;;;5071109;28;20059;-81
2023/08/26 09:34:26;;;;;;;11.18;6.75;;;20.00;99.90;;;;;;5071376;28;20040;-80
2023/08/26 09:36:52;;;;;;;8.00;6.07;;;20.20;99.90;;;;;;5069614;28;20045;-82
2023/08/26 09:39:18;;;;;;;10.80;6.70;;;20.40;99.90;;;;;;5070766;28;20048;-81
2023/08/26 09:41:45;;;;;;;11.68;6.15;;;20.70;99.90;;;;;;5070464;28;20109;-81
2023/08/26 09:44:11;;;;;;;9.80;6.55;;;21.10;99.90;;;;;;5069413;28;20048;-80
2023/08/26 09:46:39;;;;;;;8.40;5.85;;;21.30;99.90;;;;;;5069487;28;20048;-80
2023/08/26 09:49:06;;;;;;;9.32;6.03;;;21.30;99.90;;;;;;5069658;28;20059;-80
2023/08/26 09:51:32;;;;;;;9.52;4.75;;;21.30;99.90;;;;;;5070256;28;20051;-80
2023/08/26 09:53:59;;;;;;;9.20;5.65;;;21.20;99.90;;;;;;5069295;28;20045;-80
2023/08/26 09:56:26;;;;;;;7.20;4.40;;;21.40;99.90;;;;;;5075211;28;20037;-80
2023/08/26 09:58:53;;;;;;;8.02;3.70;;;21.60;99.90;;;;;;5068764;28;20505;-81
2023/08/26 10:01:20;;;;;;;8.95;4.95;;;21.60;99.90;;;;;;5074621;28;20681;-81
2023/08/26 10:03:53;;;;;;;4.43;3.38;;;21.70;99.90;;;;;;5069118;28;20044;-81
2023/08/26 10:06:24;;;;;;;7.38;3.80;;;21.70;99.90;;;;;;5087907;28;20044;-81
2023/08/26 10:09:10;;;;;;;5.18;3.10;;;21.60;99.90;;;;;;5087206;28;20059;-80
2023/08/26 10:11:40;;;;;;;3.55;2.50;;;21.50;99.90;;;;;;5074785;28;20040;-80
2023/08/26 10:14:11;;;;;;;6.43;2.35;;;21.60;99.90;;;;;;5080359;28;20044;-80
2023/08/26 10:16:37;;;;;;;4.53;2.10;;;21.70;99.90;;;;;;5086512;28;20048;-81
2023/08/26 10:19:03;;;;;;;6.32;2.35;;;21.80;99.90;;;;;;5056802;28;20048;-81
2023/08/26 10:21:30;;;;;;;4.85;1.70;;;22.00;99.90;;;;;;5080396;28;20095;-81
2023/08/26 10:23:56;;;;;;;5.47;1.77;;;22.00;99.90;;;;;;5070509;28;20052;-80
2023/08/26 10:26:22;;;;;;;4.40;1.73;;;22.00;99.90;;;;;;5084931;28;20159;-80
2023/08/26 10:28:49;;;;;;;3.55;1.70;;;21.80;99.90;;;;;;5091632;28;20090;-81
2023/08/26 10:31:16;;;;;;;7.82;2.42;;;21.60;99.90;;;;;;5091021;28;20062;-80
2023/08/26 10:33:59;;;;;;;4.80;1.73;;;21.30;99.90;;;;;;5083687;28;20094;-80
2023/08/26 10:36:26;;;;;;;4.82;1.70;;;21.10;99.90;;;;;;5082251;28;20543;-80
2023/08/26 10:38:58;;;;;;;4.22;1.70;;;21.00;99.90;;;;;;5090022;28;20089;-81
2023/08/26 10:41:25;;;;;;;3.72;1.70;;;20.90;99.90;;;;;;5070892;28;20052;-82
2023/08/26 10:43:56;;;;;;;4.72;1.67;;;20.90;99.90;;;;;;5052193;28;20102;-81
2023/08/26 10:46:30;;;;;;;5.05;1.65;;;20.90;99.90;;;;;;5070760;28;20114;-81
2023/08/26 10:48:57;;;;;;;3.72;1.88;;;21.00;99.90;;;;;;5071391;28;20063;-81
2023/08/26 10:51:23;;;;;;;3.97;1.60;;;21.20;99.90;;;;;;5076463;28;20079;-81
2023/08/26 10:53:49;;;;;;;4.93;1.60;;;21.20;99.90;;;;;;5069883;28;20094;-81
2023/08/26 10:56:18;;;;;;;4.38;1.58;;;21.40;99.90;;;;;;5070194;28;20048;-81
2023/08/26 10:58:46;;;;;;;5.40;1.42;;;21.50;99.90;;;;;;5069991;28;20098;-81
2023/08/26 11:01:12;;;;;;;2.80;1.50;;;21.60;99.90;;;;;;5070529;28;20082;-81
2023/08/26 11:03:38;;;;;;;2.15;1.27;;;21.80;99.90;;;;;;5070148;28;20032;-81
2023/08/26 11:06:10;;;;;;;3.03;1.52;;;21.90;99.90;;;;;;5076846;28;20036;-81
2023/08/26 11:08:37;;;;;;;;;;;22.00;99.90;;;;;;5090187;28;20052;-81
2023/08/26 11:11:03;;;;;;;2.58;1.10;;;22.10;99.90;;;;;;5090819;28;19991;-81
2023/08/26 11:13:28;;;;;;;2.97;1.20;;;22.30;99.90;;;;;;5088663;28;20044;-82
2023/08/26 11:15:54;;;;;;;2.42;1.27;;;22.40;99.90;;;;;;5080900;28;20035;-82
2023/08/26 11:18:21;;;;;;;4.32;1.70;;;22.40;99.90;;;;;;5086362;28;20135;-80
2023/08/26 11:20:47;;;;;;;4.05;1.55;;;22.30;99.90;;;;;;5090060;28;20498;-81
2023/08/26 11:23:13;;;;;;;2.55;1.20;;;22.00;99.90;;;;;;5081392;28;20060;-81
2023/08/26 11:25:38;;;;;;;4.28;1.50;;;21.80;99.90;;;;;;5079743;28;20044;-81
2023/08/26 11:28:08;;;;;;;3.55;1.45;;;21.60;99.90;;;;;;5090097;28;20123;-81
2023/08/26 11:30:42;;;;;;;4.22;1.25;;;21.60;99.90;;;;;;5090001;28;20121;-81
2023/08/26 11:33:15;;;;;;;3.65;1.05;;;21.60;99.90;;;;;;5088620;28;20052;-80
2023/08/26 11:35:44;;;;;;;1.42;1.10;;;21.60;99.90;;;;;;5088677;28;20052;-79
2023/08/26 11:38:11;;;;;;;2.60;1.08;;;21.50;99.90;;;;;;5070174;28;20695;-80
2023/08/26 11:40:37;;;;;;;1.85;1.17;;;21.50;99.90;;;;;;5080176;28;20132;-78
2023/08/26 11:43:13;;;;;;;2.42;1.02;;;21.40;99.90;;;;;;5087332;28;20445;-79
2023/08/26 11:45:42;;;;;;;2.40;1.00;;;21.20;99.90;;;;;;5088501;28;20160;-79
2023/08/26 11:48:12;;;;;;;2.63;1.10;;;21.20;99.90;;;;;;5089190;28;20048;-79
2023/08/26 11:50:38;;;;;;;1.63;1.00;;;21.10;99.90;;;;;;5085784;28;20123;-79
2023/08/26 11:53:05;;;;;;;2.70;0.88;;;21.10;99.90;;;;;;5089012;28;20509;-79
2023/08/26 11:55:32;;;;;;;1.25;0.90;;;21.00;99.90;;;;;;5085931;28;20084;-78
2023/08/26 11:58:00;;;;;;;1.98;0.90;;;21.00;99.90;;;;;;5082558;28;20044;-79
2023/08/26 12:00:26;;;;;;;1.90;1.13;;;21.00;99.90;;;;;;5071190;28;20455;-80
2023/08/26 12:02:54;;;;;;;3.80;1.30;;;21.20;99.90;;;;;;5067700;28;20041;-80
2023/08/26 12:05:20;;;;;;;1.95;1.15;;;21.10;99.90;;;;;;5074048;28;20041;-79
2023/08/26 12:07:50;;;;;;;2.65;1.05;;;21.00;99.90;;;;;;5089868;28;20524;-80
2023/08/26 12:10:20;;;;;;;2.30;1.40;;;20.90;99.90;;;;;;5068351;28;20059;-81
2023/08/26 12:12:47;;;;;;;2.53;1.33;;;20.80;99.90;;;;;;5067971;28;20041;-80
2023/08/26 12:15:17;;;;;;;1.75;1.40;;;20.60;99.90;;;;;;5068805;28;20048;-81
2023/08/26 12:17:47;;;;;;;1.92;1.60;;;20.60;99.90;;;;;;5066909;28;20147;-80
2023/08/26 12:20:25;;;;;;;3.28;1.67;;;20.40;99.90;;;;;;5070794;28;20740;-81
2023/08/26 12:22:53;;;;;;;2.58;1.35;;;20.30;99.90;;;;;;5075643;28;20040;-80
2023/08/26 12:25:23;;;;;;;2.92;1.70;;;20.50;99.90;;;;;;5068278;28;20052;-81
2023/08/26 12:27:49;;;;;;;1.65;1.25;;;20.80;99.90;;;;;;5069248;28;20047;-80
2023/08/26 12:30:15;;;;;;;2.65;1.27;;;20.80;99.90;;;;;;5069029;28;20106;-81
2023/08/26 12:32:40;;;;;;;2.92;1.42;;;21.10;99.90;;;;;;5083890;28;20044;-81
2023/08/26 12:35:08;;;;;;;2.08;1.35;;;21.30;99.90;;;;;;5067668;28;20035;-81